Time;durP1;ratioP1;P1;durP2;ratioP2;P2;SDS_P1;SDS_P2;PMS_P1;PMS_P2;Temp;Humidity;BMP_temperature;BMP_pressure;BME280_temperature;BME280_humidity;BME280_pressure;Samples;Min_cycle;Max_cycle;Signal;HPM_P1;HPM_P2
2021/04/07 00:04:21;;;;;;;16.00;8.30;;;;;;;-0.89;83.33;99218.28;20863578;28;20718;-59
2021/04/07 00:14:22;;;;;;;14.82;8.57;;;;;;;-1.04;84.64;99214.44;20864292;28;20222;-56
2021/04/07 00:24:22;;;;;;;16.87;9.80;;;;;;;-1.04;85.75;99216.22;20854675;28;20322;-56
2021/04/07 00:34:23;;;;;;;20.23;11.10;;;;;;;-0.98;85.92;99218.63;20870133;28;20756;-56
2021/04/07 00:44:23;;;;;;;21.70;10.87;;;;;;;-1.02;86.66;99206.53;20800362;28;20231;-57
2021/04/07 00:54:24;;;;;;;18.33;9.00;;;;;;;-1.16;87.50;99210.50;20813641;28;20223;-57
2021/04/07 01:04:25;;;;;;;15.43;8.60;;;;;;;-1.30;88.50;99212.72;20793131;28;20270;-56
2021/04/07 01:14:25;;;;;;;19.40;10.17;;;;;;;-1.43;89.74;99216.66;20811109;28;20506;-57
2021/04/07 01:24:26;;;;;;;15.87;8.93;;;;;;;-1.53;91.21;99220.50;20797439;28;20216;-56
2021/04/07 01:34:29;;;;;;;16.13;9.00;;;;;;;-1.61;91.87;99225.13;20801971;28;21069;-57
2021/04/07 01:44:30;;;;;;;11.67;7.33;;;;;;;-1.73;91.58;99225.53;20803233;28;20613;-57
2021/04/07 01:54:30;;;;;;;11.87;7.80;;;;;;;-1.84;93.28;99226.72;20793943;28;20294;-58
2021/04/07 02:04:31;;;;;;;16.25;8.07;;;;;;;-1.96;94.21;99237.56;20807982;28;20235;-56
2021/04/07 02:14:31;;;;;;;14.60;7.93;;;;;;;-2.05;95.61;99243.06;20787360;28;20228;-56
2021/04/07 02:24:32;;;;;;;13.48;8.88;;;;;;;-2.10;97.15;99244.97;20804506;28;20314;-56
2021/04/07 02:34:33;;;;;;;16.50;9.00;;;;;;;-2.10;98.06;99246.72;20783633;28;20224;-56
2021/04/07 02:44:34;;;;;;;15.27;9.27;;;;;;;-2.36;98.93;99205.69;20805396;28;20228;-57
2021/04/07 02:54:35;;;;;;;15.83;9.07;;;;;;;-1.93;100.00;99262.72;20789492;28;20235;-58
2021/04/07 03:04:35;;;;;;;10.73;7.90;;;;;;;-1.83;100.00;99274.66;20797348;28;20224;-56
2021/04/07 03:24:32;;;;;;;12.37;7.37;;;;;;;-1.77;100.00;99281.44;21035977;27;20576;-58
2021/04/07 03:34:32;;;;;;;10.73;7.33;;;;;;;-1.81;100.00;99281.50;21039280;27;20230;-59
2021/04/07 03:44:33;;;;;;;16.23;10.25;;;;;;;-1.78;100.00;99298.00;21017891;27;20244;-57
2021/04/07 03:54:33;;;;;;;17.33;8.60;;;;;;;-1.61;100.00;99306.22;21037916;27;20226;-58
2021/04/07 04:04:33;;;;;;;13.80;9.20;;;;;;;-1.15;100.00;99319.53;21015755;27;20223;-56
2021/04/07 04:14:37;;;;;;;15.50;9.97;;;;;;;-0.73;98.66;99319.84;21036027;27;20471;-54
2021/04/07 04:24:37;;;;;;;14.20;9.93;;;;;;;-0.41;97.81;99330.97;21019341;27;20211;-55
2021/04/07 04:34:38;;;;;;;15.37;10.17;;;;;;;-0.17;96.45;99323.97;20981271;27;20708;-53
2021/04/07 04:44:38;;;;;;;13.93;9.50;;;;;;;0.19;95.37;99337.47;20967421;28;20227;-58
2021/04/07 04:54:39;;;;;;;14.85;9.90;;;;;;;0.81;93.07;99342.91;20963935;28;20219;-57
2021/04/07 05:04:41;;;;;;;17.40;10.83;;;;;;;1.14;90.48;99360.81;20948709;28;20231;-59
2021/04/07 05:14:41;;;;;;;13.93;9.73;;;;;;;1.20;90.22;99352.69;20846486;28;20486;-59
2021/04/07 05:24:42;;;;;;;13.43;9.55;;;;;;;1.35;90.23;99334.50;20866137;28;20385;-60
2021/04/07 05:34:43;;;;;;;15.43;10.53;;;;;;;1.39;89.58;99351.00;20843045;28;20211;-63
2021/04/07 05:44:46;;;;;;;13.00;10.50;;;;;;;1.46;87.73;99362.94;20860716;28;20926;-61
2021/04/07 05:54:47;;;;;;;13.47;11.03;;;;;;;1.64;87.59;99374.47;20845869;28;20454;-59
2021/04/07 06:04:48;;;;;;;17.63;13.30;;;;;;;1.59;87.35;99390.44;20976521;28;20601;-61
2021/04/07 06:24:48;;;;;;;16.80;12.87;;;;;;;1.59;86.98;99411.47;21028781;27;20674;-68
2021/04/07 06:34:49;;;;;;;14.57;10.57;;;;;;;1.59;88.50;99416.72;21037961;28;20325;-58
2021/04/07 06:54:51;;;;;;;12.03;9.77;;;;;;;2.07;83.45;99399.72;20973961;27;20612;-62
2021/04/07 07:04:52;;;;;;;17.33;10.33;;;;;;;2.02;84.73;99423.63;20908344;28;20770;-67
2021/04/07 07:14:52;;;;;;;12.37;11.07;;;;;;;1.99;84.30;99451.84;20929826;28;20242;-62
2021/04/07 07:24:58;;;;;;;10.30;8.23;;;;;;;2.04;85.74;99456.00;20914530;28;20304;-64
2021/04/07 07:35:09;;;;;;;11.00;8.13;;;;;;;2.21;84.38;99471.03;21032175;27;20822;-66
2021/04/07 07:45:11;;;;;;;11.00;8.60;;;;;;;2.35;82.69;99471.28;21086577;27;20256;-64
2021/04/07 07:55:17;;;;;;;13.93;9.30;;;;;;;2.31;81.48;99480.22;21083906;27;20611;-65
2021/04/07 08:05:19;;;;;;;8.37;7.13;;;;;;;2.93;79.95;99484.44;21039067;28;20223;-63
2021/04/07 08:15:20;;;;;;;10.00;7.60;;;;;;;3.60;77.19;99486.50;21018485;28;20758;-64
2021/04/07 08:25:21;;;;;;;10.43;7.93;;;;;;;3.77;73.71;99515.53;21036356;28;20342;-59
2021/04/07 08:35:23;;;;;;;10.97;7.47;;;;;;;3.89;73.56;99504.38;21017017;28;20208;-59
2021/04/07 08:45:23;;;;;;;9.67;7.50;;;;;;;3.66;77.06;99515.19;21035040;28;20302;-59
2021/04/07 08:55:28;;;;;;;9.53;7.93;;;;;;;3.39;76.17;99522.66;21017405;28;20211;-60
2021/04/07 09:05:33;;;;;;;8.40;6.73;;;;;;;4.18;74.03;99516.09;21017456;28;20228;-59
2021/04/07 09:15:44;;;;;;;7.03;6.33;;;;;;;4.62;70.30;99521.72;21027529;28;20311;-58
2021/04/07 09:25:47;;;;;;;8.10;6.57;;;;;;;4.97;69.28;99513.69;20939042;28;20229;-59
2021/04/07 09:35:53;;;;;;;6.33;5.67;;;;;;;5.71;67.49;99503.34;20864615;28;20231;-59
2021/04/07 09:45:54;;;;;;;6.77;6.07;;;;;;;6.14;64.85;99502.63;20890911;28;20302;-60
2021/04/07 09:56:01;;;;;;;11.13;7.40;;;;;;;6.37;65.48;99513.63;20862705;28;20226;-59
2021/04/07 10:06:01;;;;;;;7.93;6.20;;;;;;;6.40;64.60;99513.47;20927530;28;20360;-60
2021/04/07 10:16:13;;;;;;;9.23;8.33;;;;;;;6.32;63.99;99526.28;20945918;28;20908;-59
2021/04/07 10:26:15;;;;;;;8.00;6.07;;;;;;;5.50;67.87;99525.75;20931154;28;20514;-59
2021/04/07 10:36:15;;;;;;;7.77;5.37;;;;;;;5.29;65.52;99528.66;20942532;28;20236;-60
2021/04/07 10:46:16;;;;;;;5.50;4.20;;;;;;;5.79;63.37;99539.06;20934756;28;20222;-60
2021/04/07 10:56:18;;;;;;;6.13;4.47;;;;;;;5.59;65.38;99543.75;20930967;28;20900;-68
2021/04/07 11:06:25;;;;;;;5.63;5.10;;;;;;;5.84;70.09;99546.72;20942491;28;20476;-60
2021/04/07 11:16:33;;;;;;;6.43;5.33;;;;;;;6.13;67.23;99550.38;20957459;28;20629;-63
2021/04/07 11:26:33;;;;;;;7.27;5.23;;;;;;;6.60;65.30;99552.84;21028224;28;20218;-57
2021/04/07 11:36:47;;;;;;;6.63;5.97;;;;;;;6.81;65.15;99559.50;21013419;28;21021;-58
2021/04/07 11:46:48;;;;;;;7.10;5.70;;;;;;;7.03;64.00;99550.22;20908124;28;21219;-57
2021/04/07 11:56:49;;;;;;;5.03;4.18;;;;;;;6.80;62.86;99546.31;20857126;28;20215;-57
2021/04/07 12:06:49;;;;;;;7.23;5.00;;;;;;;6.27;63.49;99518.63;20867593;28;20254;-58
2021/04/07 12:16:52;;;;;;;6.00;4.83;;;;;;;6.22;61.65;99493.34;20877408;28;20298;-58
2021/04/07 12:26:52;;;;;;;7.03;5.10;;;;;;;5.86;65.40;99550.13;20880634;28;20265;-59
2021/04/07 12:36:56;;;;;;;6.33;5.00;;;;;;;5.78;68.82;99552.38;20892634;28;20212;-60
2021/04/07 12:46:57;;;;;;;7.57;5.93;;;;;;;5.65;77.96;99568.09;20871595;28;20318;-60
2021/04/07 12:57:01;;;;;;;7.77;4.33;;;;;;;5.76;75.61;99560.41;20889810;28;20227;-60
2021/04/07 13:07:02;;;;;;;4.80;4.30;;;;;;;5.86;73.95;99555.44;20905420;28;20235;-60
2021/04/07 13:17:02;;;;;;;4.83;3.67;;;;;;;5.79;70.45;99532.91;20967360;28;21079;-59
2021/04/07 13:27:03;;;;;;;5.57;4.83;;;;;;;5.52;70.17;99545.03;20955242;28;20285;-60
2021/04/07 13:37:15;;;;;;;6.10;4.73;;;;;;;5.68;71.65;99561.75;20963554;28;20223;-62
2021/04/07 13:47:16;;;;;;;8.43;4.63;;;;;;;4.75;75.31;99573.91;20956998;28;20335;-65
2021/04/07 13:57:38;;;;;;;5.00;3.63;;;;;;;4.29;83.11;99581.56;20956002;28;20616;-59
2021/04/07 14:07:38;;;;;;;4.50;3.20;;;;;;;4.65;80.33;99574.41;20967927;28;20367;-58
2021/04/07 14:17:38;;;;;;;6.73;4.10;;;;;;;5.42;75.67;99597.63;20948650;28;20216;-58
2021/04/07 14:27:40;;;;;;;8.03;4.87;;;;;;;5.85;75.47;99611.09;20968320;28;20538;-58
2021/04/07 14:37:41;;;;;;;7.30;5.33;;;;;;;5.03;77.41;99637.63;20946302;28;20224;-58
2021/04/07 14:47:45;;;;;;;5.65;4.07;;;;;;;3.95;86.97;99646.59;20931673;28;20229;-58
2021/04/07 14:57:45;;;;;;;8.20;5.23;;;;;;;3.30;95.78;99652.31;20867583;28;20220;-58
2021/04/07 15:07:46;;;;;;;8.13;4.88;;;;;;;2.23;99.53;99666.59;20886250;28;20303;-57
2021/04/07 15:17:47;;;;;;;4.47;3.63;;;;;;;1.61;100.00;99674.34;20892321;28;20226;-57
2021/04/07 15:28:32;;;;;;;8.27;6.10;;;;;;;1.90;100.00;99641.66;20886642;28;20485;-59
2021/04/07 15:38:09;;;;;;;8.43;5.23;;;;;;;2.63;100.00;99638.63;20897557;28;20285;-58
2021/04/07 15:48:09;;;;;;;7.35;5.38;;;;;;;3.29;100.00;99649.72;20882501;28;20235;-59
2021/04/07 15:58:11;;;;;;;6.80;5.45;;;;;;;3.07;100.00;99644.56;20863003;28;20293;-57
2021/04/07 16:08:12;;;;;;;16.90;10.03;;;;;;;2.96;100.00;99647.69;20911221;28;20234;-57
2021/04/07 16:18:13;;;;;;;18.50;11.10;;;;;;;3.00;100.00;99648.41;20975578;28;20215;-66
2021/04/07 16:28:14;;;;;;;9.27;7.07;;;;;;;3.24;100.00;99650.81;20959107;28;20297;-58
2021/04/07 16:38:14;;;;;;;7.50;5.63;;;;;;;3.63;100.00;99642.81;20971374;28;20691;-57
2021/04/07 16:48:15;;;;;;;13.53;8.40;;;;;;;4.01;100.00;99652.50;20966960;28;20227;-58
2021/04/07 16:58:15;;;;;;;12.70;8.20;;;;;;;3.83;100.00;99662.16;20962885;28;20224;-57
2021/04/07 17:08:16;;;;;;;8.63;7.45;;;;;;;3.35;100.00;99665.28;20971106;28;20454;-58
2021/04/07 17:18:16;;;;;;;11.40;8.23;;;;;;;2.81;100.00;99686.09;20951673;28;20222;-57
2021/04/07 17:28:17;;;;;;;12.97;9.83;;;;;;;2.26;100.00;99681.41;20970762;28;20715;-57
2021/04/07 17:38:22;;;;;;;13.40;9.90;;;;;;;1.80;100.00;99684.09;20948261;28;20488;-58
2021/04/07 17:48:22;;;;;;;8.60;5.03;;;;;;;1.54;100.00;99697.38;20885667;28;21549;-62
2021/04/07 17:58:23;;;;;;;8.13;5.15;;;;;;;1.36;100.00;99692.78;20846443;28;20222;-57
2021/04/07 18:08:26;;;;;;;13.30;6.20;;;;;;;1.31;100.00;99710.53;20866773;28;20223;-55
2021/04/07 18:18:27;;;;;;;24.67;11.57;;;;;;;1.23;100.00;99723.06;20878652;28;20227;-56
2021/04/07 18:38:28;;;;;;;15.67;9.80;;;;;;;1.43;100.00;99741.63;20818966;27;20586;-56
2021/04/07 18:48:33;;;;;;;12.47;8.10;;;;;;;1.52;100.00;99743.91;20802243;28;20235;-57
2021/04/07 18:58:33;;;;;;;13.63;8.27;;;;;;;1.53;100.00;99760.53;20812739;28;20218;-60
2021/04/07 19:08:34;;;;;;;14.63;9.43;;;;;;;1.48;100.00;99760.69;20866127;28;20232;-59
2021/04/07 19:28:34;;;;;;;7.03;5.47;;;;;;;1.19;100.00;99758.25;20964227;27;20750;-54
2021/04/07 19:48:37;;;;;;;6.23;4.43;;;;;;;1.07;100.00;99778.81;20678957;28;20347;-54
2021/04/07 19:58:38;;;;;;;5.03;4.07;;;;;;;0.83;100.00;99781.41;20581007;28;20233;-52
2021/04/07 20:08:38;;;;;;;6.03;3.97;;;;;;;0.61;100.00;99781.22;20608030;28;20752;-61
2021/04/07 20:18:39;;;;;;;7.20;5.07;;;;;;;0.52;100.00;99784.13;20639703;28;21124;-54
2021/04/07 20:28:39;;;;;;;8.60;5.55;;;;;;;0.40;100.00;99753.91;20626491;28;20848;-52
2021/04/07 20:38:40;;;;;;;12.00;6.60;;;;;;;0.80;100.00;99792.84;20670196;28;20237;-57
2021/04/07 20:48:41;;;;;;;14.27;10.97;;;;;;;0.74;100.00;99785.16;20650894;28;21061;-54
2021/04/07 21:18:35;;;;;;;10.15;5.95;;;;;;;0.64;100.00;99817.88;20730855;27;926762;-52
2021/04/07 21:28:35;;;;;;;14.07;7.22;;;;;;;0.55;100.00;99818.19;20729908;28;20227;-63
2021/04/07 21:38:36;;;;;;;12.30;8.00;;;;;;;0.48;100.00;99801.78;20713672;28;20236;-52
2021/04/07 21:48:36;;;;;;;10.17;6.63;;;;;;;0.57;100.00;99813.75;20747277;28;20459;-53
2021/04/07 21:58:37;;;;;;;14.47;7.90;;;;;;;0.54;100.00;99816.47;20777570;28;20306;-63
2021/04/07 22:08:37;;;;;;;14.33;8.53;;;;;;;0.34;100.00;99820.56;20766398;28;20232;-53
2021/04/07 22:18:38;;;;;;;12.57;8.10;;;;;;;0.16;100.00;99826.38;20791847;28;20362;-54
2021/04/07 22:38:34;;;;;;;22.93;11.00;;;;;;;-0.01;100.00;99823.41;20906575;27;20636;-55
2021/04/07 22:48:34;;;;;;;16.83;9.10;;;;;;;-0.14;100.00;99806.28;20879087;27;20249;-54
2021/04/07 22:58:35;;;;;;;13.97;8.07;;;;;;;-0.13;100.00;99827.22;20904928;27;20238;-53
2021/04/07 23:08:36;;;;;;;17.10;10.43;;;;;;;-0.22;100.00;99822.22;20875287;28;20442;-53
2021/04/07 23:18:37;;;;;;;15.40;7.63;;;;;;;-0.31;100.00;99822.50;20856634;27;20704;-54
2021/04/07 23:28:37;;;;;;;13.20;7.37;;;;;;;-0.28;100.00;99813.69;20897484;27;20220;-53
2021/04/07 23:38:38;;;;;;;10.23;7.07;;;;;;;-0.26;100.00;99811.91;20890636;28;20450;-53
2021/04/07 23:48:38;;;;;;;12.37;7.20;;;;;;;-0.32;100.00;99801.56;20877836;27;20320;-53
2021/04/07 23:58:39;;;;;;;11.20;6.07;;;;;;;-0.40;100.00;99810.53;20840442;28;20778;-53
